createdAt,value
2023-03-03T00:00:37.726Z,33.87
2023-03-03T00:01:39.963Z,33.67
2023-03-03T00:02:42.268Z,32.53
2023-03-03T00:03:44.698Z,34.03
2023-03-03T00:04:47.260Z,32.20
2023-03-03T00:05:50.258Z,31.73
2023-03-03T00:06:52.412Z,35.10
2023-03-03T00:07:54.570Z,36.97
2023-03-03T00:08:57.091Z,34.90
2023-03-03T00:09:59.540Z,37.20
2023-03-03T00:11:03.308Z,34.17
2023-03-03T00:12:23.529Z,32.40
2023-03-03T00:13:27.474Z,36.00
2023-03-03T00:14:33.801Z,35.37
2023-03-03T00:15:37.630Z,33.33
2023-03-03T00:16:40.826Z,35.43
2023-03-03T00:17:44.331Z,35.20
2023-03-03T00:18:48.267Z,32.83
2023-03-03T00:19:51.573Z,34.33
2023-03-03T00:20:56.677Z,34.80
2023-03-03T00:21:59.140Z,33.87
2023-03-03T00:23:19.574Z,35.27
2023-03-03T00:24:25.993Z,34.37
2023-03-03T00:25:31.488Z,35.57
2023-03-03T00:26:39.314Z,34.60
2023-03-03T00:27:42.474Z,35.77
2023-03-03T00:28:49.654Z,35.50
2023-03-03T00:29:57.211Z,36.57
2023-03-03T00:31:03.444Z,36.17
2023-03-03T00:32:25.745Z,38.30
2023-03-03T00:33:34.874Z,33.73
2023-03-03T00:34:37.939Z,38.80
2023-03-03T00:35:41.567Z,35.17
2023-03-03T00:36:44.730Z,37.23
2023-03-03T00:37:48.001Z,34.90
2023-03-03T00:38:50.285Z,38.27
2023-03-03T00:39:52.433Z,35.60
2023-03-03T00:40:54.578Z,36.83
2023-03-03T00:41:58.296Z,33.47
2023-03-03T00:43:02.012Z,36.03
2023-03-03T00:44:42.600Z,36.87
2023-03-03T00:46:03.143Z,32.00
2023-03-03T00:47:30.741Z,33.23
2023-03-03T00:48:36.558Z,35.20
2023-03-03T00:49:39.646Z,34.43
2023-03-03T00:50:43.637Z,36.10
2023-03-03T00:51:46.041Z,34.60
2023-03-03T00:53:13.620Z,35.00
2023-03-03T00:54:15.751Z,37.87
2023-03-03T00:55:18.034Z,35.67
2023-03-03T00:56:20.903Z,33.93
2023-03-03T00:57:23.065Z,30.43
2023-03-03T00:58:27.618Z,31.57
2023-03-03T00:59:32.355Z,30.87
2023-03-03T01:00:35.597Z,30.90
2023-03-03T01:01:39.203Z,31.13
2023-03-03T01:02:41.582Z,32.27
2023-03-03T01:03:44.860Z,29.37
2023-03-03T01:04:51.554Z,31.27
2023-03-03T01:05:54.415Z,30.83
2023-03-03T01:06:56.590Z,31.57
2023-03-03T01:07:58.782Z,29.73
2023-03-03T01:09:01.417Z,31.47
2023-03-03T01:10:05.567Z,32.53
2023-03-03T01:11:13.766Z,29.50
2023-03-03T01:12:16.223Z,30.87
2023-03-03T01:13:20.880Z,29.03
2023-03-03T01:14:23.224Z,31.07
2023-03-03T01:15:26.651Z,32.57
2023-03-03T01:16:28.965Z,31.17
2023-03-03T01:17:32.390Z,29.20
2023-03-03T01:18:35.407Z,30.27
2023-03-03T01:19:37.724Z,29.13
2023-03-03T01:20:40.944Z,31.13
2023-03-03T01:21:43.126Z,32.47
2023-03-03T01:22:45.312Z,31.40
2023-03-03T01:23:47.565Z,31.77
2023-03-03T01:24:49.735Z,35.77
2023-03-03T01:25:52.319Z,32.73
2023-03-03T01:26:54.554Z,31.93
2023-03-03T01:27:58.623Z,32.60
2023-03-03T01:29:00.804Z,32.10
2023-03-03T01:30:05.361Z,34.83
2023-03-03T01:31:07.657Z,34.47
2023-03-03T01:32:10.294Z,31.03
2023-03-03T01:33:12.474Z,30.63
2023-03-03T01:34:14.612Z,30.30
2023-03-03T01:37:58.896Z,33.57
2023-03-03T01:39:01.502Z,30.43
2023-03-03T01:40:06.427Z,33.77
2023-03-03T01:41:09.194Z,29.70
2023-03-03T01:42:11.638Z,31.37
2023-03-03T01:43:16.212Z,29.83
2023-03-03T01:44:18.620Z,32.97
2023-03-03T01:45:26.951Z,31.03
2023-03-03T01:46:44.926Z,30.37
2023-03-03T01:47:52.750Z,30.67
2023-03-03T01:49:03.645Z,31.03
2023-03-03T01:50:14.467Z,29.93
2023-03-03T01:51:23.947Z,28.77
2023-03-03T01:52:40.924Z,29.27
2023-03-03T01:53:48.083Z,29.53
2023-03-03T01:54:56.912Z,30.17
2023-03-03T01:55:59.871Z,36.03
2023-03-03T01:57:06.866Z,28.27
2023-03-03T01:58:16.210Z,26.63
2023-03-03T01:59:25.286Z,30.10
2023-03-03T02:00:28.800Z,30.50
2023-03-03T02:01:32.617Z,28.23
2023-03-03T02:02:36.045Z,27.33
2023-03-03T02:03:38.770Z,26.13
2023-03-03T02:04:41.071Z,27.83
2023-03-03T02:05:43.744Z,28.47
2023-03-03T02:06:52.976Z,30.17
2023-03-03T02:07:58.293Z,27.30
2023-03-03T02:09:17.143Z,29.27
2023-03-03T02:10:22.108Z,27.73
2023-03-03T02:11:24.671Z,29.23
2023-03-03T02:12:33.646Z,25.70
2023-03-03T02:13:35.842Z,29.27
2023-03-03T02:14:38.027Z,29.47
2023-03-03T02:15:41.998Z,27.73
2023-03-03T02:16:45.035Z,27.87
2023-03-03T02:17:52.856Z,29.43
2023-03-03T02:18:55.150Z,27.50
2023-03-03T02:20:07.805Z,28.57
2023-03-03T02:21:20.372Z,27.43
2023-03-03T02:22:44.388Z,26.50
2023-03-03T02:24:27.791Z,23.47
2023-03-03T02:25:59.086Z,26.10
2023-03-03T02:27:03.754Z,25.53
2023-03-03T02:28:06.122Z,28.10
2023-03-03T02:29:10.049Z,28.60
2023-03-03T02:30:17.512Z,26.13
2023-03-03T02:31:23.132Z,25.77
2023-03-03T02:32:25.420Z,26.37
2023-03-03T02:33:28.976Z,26.83
2023-03-03T02:34:31.269Z,27.43
2023-03-03T02:35:40.839Z,26.53
2023-03-03T02:36:43.028Z,26.90
2023-03-03T02:37:45.496Z,26.80
2023-03-03T02:39:13.297Z,29.30
2023-03-03T02:40:21.767Z,25.30
2023-03-03T02:41:43.434Z,25.37
2023-03-03T02:42:46.940Z,25.53
2023-03-03T02:44:04.854Z,28.53
2023-03-03T02:45:08.535Z,27.93
2023-03-03T02:46:10.737Z,27.20
2023-03-03T02:47:13.379Z,28.30
2023-03-03T02:48:15.503Z,26.10
2023-03-03T02:49:26.806Z,26.90
2023-03-03T02:50:29.040Z,26.70
2023-03-03T02:51:31.264Z,27.67
2023-03-03T02:52:33.444Z,28.40
2023-03-03T02:53:35.630Z,26.00
2023-03-03T02:54:38.797Z,29.90
2023-03-03T02:55:41.019Z,29.87
2023-03-03T02:56:43.620Z,27.43
2023-03-03T02:57:45.765Z,28.97
2023-03-03T02:58:47.997Z,28.87
2023-03-03T02:59:50.186Z,26.90
2023-03-03T03:00:53.121Z,26.33
2023-03-03T03:01:58.309Z,23.07
2023-03-03T03:03:00.609Z,28.20
2023-03-03T03:04:10.033Z,24.90
2023-03-03T03:05:13.003Z,25.73
2023-03-03T03:06:15.480Z,23.90
2023-03-03T03:07:17.765Z,26.63
2023-03-03T03:08:20.095Z,26.50
2023-03-03T03:09:24.409Z,26.40
2023-03-03T03:10:27.780Z,25.33
2023-03-03T03:11:30.091Z,24.57
2023-03-03T03:12:33.768Z,26.77
2023-03-03T03:13:36.835Z,28.33
2023-03-03T03:14:39.164Z,29.60
2023-03-03T03:15:42.518Z,25.43
2023-03-03T03:16:44.797Z,26.80
2023-03-03T03:17:47.389Z,25.90
2023-03-03T03:18:50.944Z,27.90
2023-03-03T03:19:53.406Z,26.00
2023-03-03T03:20:55.844Z,30.57
2023-03-03T03:21:58.421Z,32.10
2023-03-03T03:23:00.611Z,27.47
2023-03-03T03:24:02.956Z,26.30
2023-03-03T03:25:07.789Z,28.70
2023-03-03T03:26:10.208Z,25.80
2023-03-03T03:27:12.388Z,25.53
2023-03-03T03:28:16.866Z,28.40
2023-03-03T03:29:19.008Z,26.13
2023-03-03T03:30:21.400Z,25.77
2023-03-03T03:31:23.972Z,25.23
2023-03-03T03:32:26.790Z,26.70
2023-03-03T03:33:29.389Z,25.30
2023-03-03T03:34:32.577Z,23.87
2023-03-03T03:35:36.422Z,26.07
2023-03-03T03:36:40.019Z,28.53
2023-03-03T03:37:44.135Z,24.63
2023-03-03T03:38:47.821Z,27.90
2023-03-03T03:39:50.798Z,24.13
2023-03-03T03:40:55.130Z,25.23
2023-03-03T03:41:57.911Z,24.30
2023-03-03T03:43:00.065Z,26.90
2023-03-03T03:44:02.215Z,23.30
2023-03-03T03:45:04.954Z,23.50
2023-03-03T03:46:07.656Z,26.10
2023-03-03T03:47:10.337Z,25.67
2023-03-03T03:48:13.453Z,24.40
2023-03-03T03:49:15.670Z,26.23
2023-03-03T03:50:18.067Z,28.00
2023-03-03T03:51:21.250Z,25.70
2023-03-03T03:52:23.507Z,25.23
2023-03-03T03:53:25.872Z,27.03
2023-03-03T03:54:28.446Z,27.10
2023-03-03T03:55:31.003Z,25.77
2023-03-03T03:56:33.441Z,26.33
2023-03-03T03:57:37.167Z,29.63
2023-03-03T03:58:41.666Z,25.50
2023-03-03T03:59:45.989Z,25.87
2023-03-03T04:00:48.408Z,26.23
2023-03-03T04:01:50.742Z,27.53
2023-03-03T04:02:54.955Z,26.07
2023-03-03T04:03:57.353Z,24.87
2023-03-03T04:05:00.388Z,24.67
2023-03-03T04:06:02.946Z,25.20
2023-03-03T04:07:06.009Z,25.50
2023-03-03T04:08:08.423Z,26.87
2023-03-03T04:09:11.952Z,24.77
2023-03-03T04:10:14.148Z,26.03
2023-03-03T04:11:16.711Z,24.27
2023-03-03T04:12:18.961Z,28.20
2023-03-03T04:13:23.696Z,24.90
2023-03-03T04:14:26.066Z,28.00
2023-03-03T04:15:28.613Z,25.13
2023-03-03T04:16:31.709Z,26.00
2023-03-03T04:17:36.212Z,26.67
2023-03-03T04:18:39.343Z,27.13
2023-03-03T04:19:41.617Z,26.20
2023-03-03T04:20:44.952Z,26.23
2023-03-03T04:21:47.328Z,23.37
2023-03-03T04:22:49.556Z,26.30
2023-03-03T04:23:53.483Z,24.50
2023-03-03T04:24:55.837Z,24.33
2023-03-03T04:25:58.053Z,24.07
2023-03-03T04:27:01.450Z,25.73
2023-03-03T04:28:05.580Z,25.17
2023-03-03T04:29:08.557Z,24.50
2023-03-03T04:30:12.080Z,25.17
2023-03-03T04:31:15.113Z,22.73
2023-03-03T04:32:18.766Z,24.27
2023-03-03T04:33:23.505Z,24.50
2023-03-03T04:34:26.999Z,26.47
2023-03-03T04:35:29.776Z,25.57
2023-03-03T04:36:32.596Z,26.00
2023-03-03T04:37:35.662Z,23.17
2023-03-03T04:38:38.224Z,25.43
2023-03-03T04:39:40.858Z,23.87
2023-03-03T04:40:43.510Z,24.07
2023-03-03T04:41:47.186Z,23.17
2023-03-03T04:42:50.138Z,24.07
2023-03-03T04:43:52.371Z,23.40
2023-03-03T04:44:55.112Z,23.63
2023-03-03T04:45:58.109Z,26.17
2023-03-03T04:47:00.338Z,24.57
2023-03-03T04:48:03.173Z,26.40
2023-03-03T04:49:10.734Z,23.87
2023-03-03T04:50:14.393Z,22.57
2023-03-03T04:51:16.961Z,25.00
2023-03-03T04:52:20.336Z,24.00
2023-03-03T04:53:23.334Z,23.93
2023-03-03T04:54:25.803Z,23.57
2023-03-03T04:55:27.953Z,23.17
2023-03-03T04:56:32.589Z,23.57
2023-03-03T04:57:35.677Z,25.43
2023-03-03T04:58:38.299Z,25.03
2023-03-03T04:59:40.694Z,23.33
2023-03-03T05:00:43.017Z,24.47
2023-03-03T05:01:46.803Z,23.57
2023-03-03T05:02:49.902Z,23.57
2023-03-03T05:03:52.173Z,22.43
2023-03-03T05:04:54.418Z,25.20
2023-03-03T05:05:56.672Z,25.87
2023-03-03T05:06:58.930Z,23.23
2023-03-03T05:08:01.101Z,24.73
2023-03-03T05:09:04.596Z,24.37
2023-03-03T05:10:08.532Z,24.93
2023-03-03T05:11:10.889Z,23.33
2023-03-03T05:12:13.087Z,23.27
2023-03-03T05:13:17.265Z,24.47
2023-03-03T05:14:19.564Z,23.30
2023-03-03T05:15:21.797Z,23.70
2023-03-03T05:16:24.494Z,24.07
2023-03-03T05:17:26.741Z,25.60
2023-03-03T05:18:29.338Z,23.93
2023-03-03T05:19:32.046Z,24.87
2023-03-03T05:20:35.705Z,25.73
2023-03-03T05:21:41.847Z,22.80
2023-03-03T05:22:44.019Z,23.13
2023-03-03T05:23:46.210Z,23.90
2023-03-03T05:24:49.504Z,24.93
2023-03-03T05:25:52.262Z,22.60
2023-03-03T05:26:54.464Z,23.53
2023-03-03T05:27:56.697Z,25.27
2023-03-03T05:28:59.179Z,23.70
2023-03-03T05:30:01.336Z,25.83
2023-03-03T05:31:03.750Z,25.77
2023-03-03T05:32:06.344Z,23.53
2023-03-03T05:33:09.085Z,23.30
2023-03-03T05:34:11.294Z,24.57
2023-03-03T05:35:13.474Z,24.77
2023-03-03T05:36:16.789Z,23.83
2023-03-03T05:37:19.020Z,23.73
2023-03-03T05:38:21.552Z,24.60
2023-03-03T05:39:23.900Z,25.27
2023-03-03T05:40:27.834Z,25.23
2023-03-03T05:41:30.030Z,24.60
2023-03-03T05:42:32.420Z,23.83
2023-03-03T05:43:35.659Z,27.33
2023-03-03T05:44:38.660Z,24.53
2023-03-03T05:45:40.991Z,26.57
2023-03-03T05:46:43.338Z,25.57
2023-03-03T05:47:45.880Z,25.00
2023-03-03T05:48:48.110Z,24.90
2023-03-03T05:49:50.252Z,26.00
2023-03-03T05:50:52.468Z,25.20
2023-03-03T05:51:54.790Z,24.63
2023-03-03T05:52:57.265Z,23.83
2023-03-03T05:53:59.772Z,20.83
2023-03-03T05:55:02.225Z,23.90
2023-03-03T05:56:06.595Z,24.93
2023-03-03T05:57:08.813Z,22.73
2023-03-03T05:58:12.256Z,25.17
2023-03-03T05:59:14.482Z,22.87
2023-03-03T06:00:17.267Z,22.53
2023-03-03T06:01:19.427Z,23.53
2023-03-03T06:02:21.765Z,24.33
2023-03-03T06:03:24.538Z,24.70
2023-03-03T06:04:26.804Z,22.93
2023-03-03T06:05:29.029Z,23.50
2023-03-03T06:06:31.185Z,24.40
2023-03-03T06:07:33.464Z,23.63
2023-03-03T06:08:35.827Z,24.73
2023-03-03T06:09:38.229Z,25.10
2023-03-03T06:10:40.539Z,24.67
2023-03-03T06:11:45.100Z,25.10
2023-03-03T06:12:47.300Z,25.10
2023-03-03T06:13:49.553Z,23.23
2023-03-03T06:14:51.720Z,25.43
2023-03-03T06:15:54.056Z,24.10
2023-03-03T06:16:58.216Z,25.27
2023-03-03T06:18:00.384Z,29.60
2023-03-03T06:19:02.629Z,23.90
2023-03-03T06:20:05.800Z,27.13
2023-03-03T06:21:08.246Z,24.50
2023-03-03T06:22:10.452Z,21.27
2023-03-03T06:23:12.714Z,22.83
2023-03-03T06:24:14.938Z,23.00
2023-03-03T06:25:17.245Z,22.77
2023-03-03T06:26:19.645Z,22.27
2023-03-03T06:27:22.127Z,23.73
2023-03-03T06:28:25.221Z,22.93
2023-03-03T06:29:28.135Z,22.27
2023-03-03T06:30:30.936Z,23.90
2023-03-03T06:31:33.161Z,22.87
2023-03-03T06:32:36.493Z,20.43
2023-03-03T06:33:39.137Z,22.47
2023-03-03T06:34:41.322Z,21.27
2023-03-03T06:35:43.592Z,22.70
2023-03-03T06:36:46.053Z,20.13
2023-03-03T06:37:50.919Z,20.07
2023-03-03T06:38:53.176Z,21.77
2023-03-03T06:39:55.773Z,20.83
2023-03-03T06:40:58.686Z,20.33
2023-03-03T06:42:01.337Z,22.17
2023-03-03T06:43:04.451Z,21.90
2023-03-03T06:44:06.661Z,22.40
2023-03-03T06:45:09.360Z,22.97
2023-03-03T06:46:11.602Z,21.03
2023-03-03T06:47:13.852Z,20.40
2023-03-03T06:48:16.033Z,20.80
2023-03-03T06:49:18.277Z,21.10
2023-03-03T06:50:21.004Z,20.30
2023-03-03T06:51:32.162Z,20.63
2023-03-03T06:52:34.561Z,18.93
2023-03-03T06:53:36.870Z,18.33
2023-03-03T06:54:39.229Z,19.33
2023-03-03T06:55:44.536Z,19.10
2023-03-03T06:56:48.410Z,17.97
2023-03-03T06:57:50.779Z,19.13
2023-03-03T06:59:02.889Z,19.30
2023-03-03T07:00:29.516Z,17.10
2023-03-03T07:01:37.370Z,18.83
2023-03-03T07:02:40.186Z,18.27
2023-03-03T07:03:42.415Z,17.07
2023-03-03T07:04:47.034Z,19.23
2023-03-03T07:05:49.421Z,18.83
2023-03-03T07:06:51.698Z,18.67
2023-03-03T07:07:54.637Z,20.83
2023-03-03T07:08:58.122Z,18.50
2023-03-03T07:10:00.477Z,17.87
2023-03-03T07:11:09.411Z,16.70
2023-03-03T07:12:16.552Z,16.67
2023-03-03T07:13:26.071Z,17.37
2023-03-03T07:14:29.962Z,16.37
2023-03-03T07:15:36.222Z,15.33
2023-03-03T07:16:38.505Z,16.40
2023-03-03T07:17:50.910Z,17.17
2023-03-03T07:18:54.984Z,15.40
2023-03-03T07:19:57.510Z,15.80
2023-03-03T07:21:00.395Z,19.27
2023-03-03T07:22:12.762Z,17.97
2023-03-03T07:23:27.488Z,16.17
2023-03-03T07:24:31.409Z,15.87
2023-03-03T07:25:38.160Z,15.57
2023-03-03T07:26:40.342Z,16.33
2023-03-03T07:27:42.566Z,15.63
2023-03-03T07:28:52.551Z,15.53
2023-03-03T07:30:14.126Z,16.67
2023-03-03T07:31:37.643Z,16.20
2023-03-03T07:32:46.559Z,15.67
2023-03-03T07:33:48.741Z,14.10
2023-03-03T07:34:52.491Z,16.60
2023-03-03T07:35:58.394Z,15.83
2023-03-03T07:37:13.792Z,15.40
2023-03-03T07:38:31.443Z,15.70
2023-03-03T07:39:43.324Z,15.60
2023-03-03T07:40:52.520Z,15.67
2023-03-03T07:42:19.531Z,15.23
2023-03-03T07:43:28.894Z,16.40
2023-03-03T07:44:37.068Z,15.77
2023-03-03T07:45:39.250Z,13.63
2023-03-03T07:46:48.165Z,13.27
2023-03-03T07:47:50.357Z,16.07
2023-03-03T07:48:52.798Z,13.50
2023-03-03T07:49:57.508Z,14.10
2023-03-03T07:51:05.020Z,13.87
2023-03-03T07:52:25.959Z,14.37
2023-03-03T07:53:34.900Z,12.93
2023-03-03T07:54:40.586Z,12.90
2023-03-03T07:55:42.977Z,13.83
2023-03-03T07:56:45.785Z,11.80
2023-03-03T07:57:51.746Z,11.90
2023-03-03T07:58:56.621Z,13.10
2023-03-03T08:00:29.584Z,12.90
2023-03-03T08:01:48.607Z,12.57
2023-03-03T08:03:05.255Z,12.50
2023-03-03T08:04:16.637Z,11.80
2023-03-03T08:05:30.999Z,11.90
2023-03-03T08:06:46.733Z,12.30
2023-03-03T08:07:52.197Z,12.63
2023-03-03T08:08:54.310Z,12.07
2023-03-03T08:10:01.316Z,12.57
2023-03-03T08:11:04.732Z,13.57
2023-03-03T08:12:06.940Z,11.97
2023-03-03T08:13:18.494Z,11.90
2023-03-03T08:14:27.578Z,12.10
2023-03-03T08:15:36.730Z,11.23
2023-03-03T08:16:39.141Z,12.43
2023-03-03T08:17:44.103Z,13.23
2023-03-03T08:18:53.561Z,12.17
2023-03-03T08:19:56.290Z,12.40
2023-03-03T08:21:06.053Z,11.93
2023-03-03T08:22:31.656Z,11.00
2023-03-03T08:23:33.783Z,12.37
2023-03-03T08:24:38.375Z,11.83
2023-03-03T08:25:42.516Z,12.53
2023-03-03T08:26:45.193Z,14.07
2023-03-03T08:27:47.455Z,12.63
2023-03-03T08:28:49.928Z,13.23
2023-03-03T08:29:52.077Z,12.47
2023-03-03T08:31:05.556Z,11.87
2023-03-03T08:32:15.440Z,12.97
2023-03-03T08:33:18.166Z,12.70
2023-03-03T08:34:20.361Z,13.07
2023-03-03T08:35:22.527Z,13.03
2023-03-03T08:36:25.020Z,12.87
2023-03-03T08:37:27.399Z,13.07
2023-03-03T08:38:29.832Z,13.50
2023-03-03T08:39:32.119Z,11.37
2023-03-03T08:40:35.185Z,12.20
2023-03-03T08:41:37.477Z,12.90
2023-03-03T08:42:39.688Z,12.40
2023-03-03T08:43:41.869Z,12.23
2023-03-03T08:44:44.052Z,13.13
2023-03-03T08:45:47.293Z,12.53
2023-03-03T08:46:49.762Z,13.50
2023-03-03T08:47:52.017Z,11.87
2023-03-03T08:48:54.309Z,14.77
2023-03-03T08:49:56.503Z,12.30
2023-03-03T08:50:59.241Z,12.57
2023-03-03T08:52:01.599Z,11.90
2023-03-03T08:53:04.441Z,12.53
2023-03-03T08:54:06.699Z,12.43
2023-03-03T08:55:09.233Z,11.57
2023-03-03T08:56:11.874Z,11.83
2023-03-03T08:57:14.037Z,12.40
2023-03-03T08:58:17.742Z,12.07
2023-03-03T08:59:20.625Z,13.53
2023-03-03T09:00:23.407Z,13.33
2023-03-03T09:01:25.638Z,12.67
2023-03-03T09:02:27.827Z,11.17
2023-03-03T09:03:30.420Z,13.03
2023-03-03T09:04:33.169Z,12.53
2023-03-03T09:05:38.111Z,11.37
2023-03-03T09:06:40.232Z,11.17
2023-03-03T09:07:43.140Z,13.07
2023-03-03T09:08:45.335Z,10.20
2023-03-03T09:09:47.960Z,11.40
2023-03-03T09:10:50.655Z,10.87
2023-03-03T09:12:03.539Z,10.97
2023-03-03T09:13:15.531Z,9.30
2023-03-03T09:14:19.055Z,9.20
2023-03-03T09:15:25.787Z,9.23
2023-03-03T09:16:35.088Z,9.13
2023-03-03T09:17:37.932Z,8.87
2023-03-03T09:18:41.831Z,8.50
2023-03-03T09:19:45.444Z,9.33
2023-03-03T09:20:50.181Z,10.13
2023-03-03T09:21:57.372Z,9.17
2023-03-03T09:23:27.915Z,7.97
2023-03-03T09:24:32.165Z,8.37
2023-03-03T09:25:37.724Z,7.50
2023-03-03T09:26:47.779Z,7.40
2023-03-03T09:27:54.283Z,7.73
2023-03-03T09:29:08.216Z,8.37
2023-03-03T09:30:37.023Z,8.30
2023-03-03T09:31:45.698Z,9.20
2023-03-03T09:32:47.900Z,8.30
2023-03-03T09:33:51.697Z,8.80
2023-03-03T09:34:54.061Z,7.93
2023-03-03T09:36:26.120Z,8.50
2023-03-03T09:37:51.060Z,8.00
2023-03-03T09:38:55.844Z,8.00
2023-03-03T09:39:58.656Z,7.73
2023-03-03T09:41:07.301Z,7.67
2023-03-03T09:42:25.960Z,7.13
2023-03-03T09:43:50.173Z,6.73
2023-03-03T09:45:11.788Z,7.77
2023-03-03T09:46:40.379Z,6.77
2023-03-03T09:48:08.071Z,6.87
2023-03-03T09:49:20.092Z,6.37
2023-03-03T09:50:49.298Z,6.97
2023-03-03T09:52:21.556Z,6.90
2023-03-03T09:53:45.842Z,6.57
2023-03-03T09:55:17.759Z,6.20
2023-03-03T09:56:30.508Z,6.40
2023-03-03T09:58:01.240Z,6.40
2023-03-03T09:59:30.248Z,6.30
2023-03-03T10:00:50.898Z,5.03
2023-03-03T10:02:11.611Z,6.43
2023-03-03T10:03:26.280Z,5.90
2023-03-03T10:04:55.643Z,6.67
2023-03-03T10:06:13.062Z,6.57
2023-03-03T10:07:31.219Z,7.00
2023-03-03T10:08:48.143Z,5.67
2023-03-03T10:10:04.046Z,6.47
2023-03-03T10:11:13.518Z,6.40
2023-03-03T10:12:53.803Z,5.77
2023-03-03T10:14:20.002Z,5.50
2023-03-03T10:15:59.846Z,6.47
2023-03-03T10:17:30.222Z,5.50
2023-03-03T10:19:03.149Z,5.33
2023-03-03T10:20:28.203Z,5.83
2023-03-03T10:21:44.860Z,6.37
2023-03-03T10:22:54.507Z,5.63
2023-03-03T10:24:08.882Z,5.77
2023-03-03T10:25:10.978Z,6.23
2023-03-03T10:26:57.959Z,5.13
2023-03-03T10:28:30.429Z,5.90
2023-03-03T10:29:50.734Z,4.97
2023-03-03T10:31:28.370Z,4.87
2023-03-03T10:32:41.539Z,5.30
2023-03-03T10:34:00.652Z,4.83
2023-03-03T10:35:21.431Z,5.03
2023-03-03T10:36:34.746Z,4.27
2023-03-03T10:37:52.474Z,4.90
2023-03-03T10:39:42.225Z,4.67
2023-03-03T10:40:57.167Z,4.87
2023-03-03T10:42:06.992Z,4.93
2023-03-03T10:43:35.108Z,5.80
2023-03-03T10:45:04.946Z,5.43
2023-03-03T10:46:17.414Z,5.40
2023-03-03T10:47:35.839Z,4.77
2023-03-03T10:48:56.780Z,5.40
2023-03-03T10:50:25.749Z,4.80
2023-03-03T10:51:46.186Z,4.87
2023-03-03T10:53:12.327Z,4.90
2023-03-03T10:54:45.713Z,4.40
2023-03-03T10:55:57.759Z,4.90
2023-03-03T10:57:12.839Z,4.77
2023-03-03T10:58:17.841Z,5.00
2023-03-03T10:59:41.292Z,4.27
2023-03-03T11:00:58.755Z,4.63
2023-03-03T11:02:53.632Z,4.70
2023-03-03T11:04:04.870Z,4.50
2023-03-03T11:05:29.301Z,4.40
2023-03-03T11:06:40.053Z,4.13
2023-03-03T11:08:07.506Z,4.90
2023-03-03T11:09:25.005Z,5.30
2023-03-03T11:10:47.669Z,5.80
2023-03-03T11:11:49.843Z,5.83
2023-03-03T11:13:11.398Z,4.73
2023-03-03T11:14:34.897Z,5.27
2023-03-03T11:16:00.831Z,4.67
2023-03-03T11:17:18.129Z,5.57
2023-03-03T11:18:51.360Z,5.67
2023-03-03T11:20:05.009Z,5.40
2023-03-03T11:21:30.745Z,5.43
2023-03-03T11:22:57.623Z,5.07
2023-03-03T11:24:13.191Z,5.50
2023-03-03T11:25:33.346Z,5.70
2023-03-03T11:26:46.834Z,5.33
2023-03-03T11:28:12.726Z,4.63
2023-03-03T11:29:42.007Z,5.90
2023-03-03T11:31:02.763Z,5.40
2023-03-03T11:32:16.655Z,5.03
2023-03-03T11:33:38.576Z,4.90
2023-03-03T11:34:57.542Z,6.07
2023-03-03T11:36:11.971Z,5.93
2023-03-03T11:37:23.221Z,5.17
2023-03-03T11:38:37.213Z,4.77
2023-03-03T11:39:42.372Z,4.50
2023-03-03T11:40:57.631Z,4.57
2023-03-03T11:42:05.950Z,4.77
2023-03-03T11:43:35.621Z,4.17
2023-03-03T11:44:46.357Z,4.53
2023-03-03T11:45:58.951Z,4.07
2023-03-03T11:47:21.950Z,4.03
2023-03-03T11:48:52.707Z,4.30
2023-03-03T11:50:03.882Z,3.77
2023-03-03T11:51:28.013Z,4.10
2023-03-03T11:52:47.966Z,5.70
2023-03-03T11:54:19.609Z,3.97
2023-03-03T11:55:26.920Z,5.00
2023-03-03T11:56:42.809Z,5.70
2023-03-03T11:58:14.471Z,5.13
2023-03-03T11:59:34.761Z,6.97
2023-03-03T12:01:14.883Z,5.27
2023-03-03T12:02:56.153Z,5.03
2023-03-03T12:04:14.282Z,4.13
2023-03-03T12:05:45.484Z,4.90
2023-03-03T12:07:18.170Z,5.03
2023-03-03T12:08:54.321Z,4.60
2023-03-03T12:10:23.116Z,5.40
2023-03-03T12:11:38.787Z,5.47
2023-03-03T12:12:44.702Z,5.03
2023-03-03T12:14:17.718Z,5.50
2023-03-03T12:15:31.349Z,4.70
2023-03-03T12:16:40.255Z,4.33
2023-03-03T12:18:15.085Z,4.10
2023-03-03T12:19:29.755Z,4.60
2023-03-03T12:20:52.370Z,4.40
2023-03-03T12:22:08.895Z,5.10
2023-03-03T12:23:49.605Z,5.33
2023-03-03T12:25:14.657Z,4.93
2023-03-03T12:26:28.350Z,4.30
2023-03-03T12:27:54.202Z,4.73
2023-03-03T12:29:08.022Z,4.53
2023-03-03T12:30:21.077Z,4.87
2023-03-03T12:31:56.810Z,5.40
2023-03-03T12:33:00.476Z,5.67
2023-03-03T12:34:18.170Z,6.03
2023-03-03T12:35:26.081Z,5.00
2023-03-03T12:36:44.880Z,6.87
2023-03-03T12:37:59.866Z,6.03
2023-03-03T12:39:34.047Z,7.13
2023-03-03T12:41:04.809Z,5.87
2023-03-03T12:42:36.711Z,5.80
2023-03-03T12:44:03.442Z,6.57
2023-03-03T12:45:38.677Z,5.90
2023-03-03T12:46:52.213Z,5.57
2023-03-03T12:48:01.505Z,6.97
2023-03-03T12:49:04.485Z,6.47
2023-03-03T12:50:11.411Z,7.57
2023-03-03T12:51:32.420Z,6.73
2023-03-03T12:52:58.156Z,6.60
2023-03-03T12:54:06.634Z,6.47
2023-03-03T12:55:20.040Z,6.87
2023-03-03T12:56:48.631Z,6.23
2023-03-03T12:57:59.967Z,7.97
2023-03-03T12:59:16.033Z,6.30
2023-03-03T13:00:25.820Z,7.07
2023-03-03T13:01:54.124Z,7.33
2023-03-03T13:03:08.163Z,7.40
2023-03-03T13:04:19.709Z,6.63
2023-03-03T13:05:48.247Z,8.13
2023-03-03T13:07:05.057Z,6.77
2023-03-03T13:08:31.623Z,6.63
2023-03-03T13:10:07.690Z,7.93
2023-03-03T13:11:22.511Z,7.17
2023-03-03T13:12:30.647Z,6.43
2023-03-03T13:13:52.548Z,7.37
2023-03-03T13:15:02.777Z,5.83
2023-03-03T13:16:16.801Z,6.33
2023-03-03T13:17:27.549Z,6.40
2023-03-03T13:18:36.268Z,6.70
2023-03-03T13:19:44.397Z,6.30
2023-03-03T13:20:54.711Z,7.27
2023-03-03T13:22:12.899Z,6.80
2023-03-03T13:23:33.452Z,6.20
2023-03-03T13:25:19.721Z,6.73
2023-03-03T13:26:40.768Z,5.87
2023-03-03T13:27:47.956Z,6.40
2023-03-03T13:29:16.502Z,5.67
2023-03-03T13:30:33.321Z,7.83
2023-03-03T13:31:40.819Z,6.63
2023-03-03T13:33:01.641Z,6.10
2023-03-03T13:34:04.057Z,6.97
2023-03-03T13:35:32.110Z,6.97
2023-03-03T13:37:20.654Z,6.83
2023-03-03T13:38:28.428Z,6.67
2023-03-03T13:39:37.770Z,7.67
2023-03-03T13:40:49.257Z,7.27
2023-03-03T13:42:13.453Z,7.03
2023-03-03T13:43:28.795Z,6.37
2023-03-03T13:44:42.635Z,7.07
2023-03-03T13:46:09.311Z,7.50
2023-03-03T13:47:23.663Z,7.93
2023-03-03T13:48:50.338Z,7.63
2023-03-03T13:50:12.376Z,7.27
2023-03-03T13:51:37.541Z,6.67
2023-03-03T13:53:03.547Z,6.47
2023-03-03T13:54:19.266Z,7.47
2023-03-03T13:55:30.105Z,7.70
2023-03-03T13:56:38.282Z,8.97
2023-03-03T13:58:01.089Z,7.60
2023-03-03T13:59:10.469Z,7.77
2023-03-03T14:00:38.579Z,8.23
2023-03-03T14:01:47.100Z,7.80
2023-03-03T14:03:15.610Z,7.70
2023-03-03T14:04:26.974Z,7.27
2023-03-03T14:05:47.281Z,7.80
2023-03-03T14:06:58.027Z,7.23
2023-03-03T14:08:12.971Z,6.97
2023-03-03T14:09:46.430Z,7.80
2023-03-03T14:11:10.910Z,7.23
2023-03-03T14:12:39.113Z,8.53
2023-03-03T14:14:00.390Z,7.03
2023-03-03T14:15:32.220Z,6.47
2023-03-03T14:16:39.768Z,7.37
2023-03-03T14:17:58.017Z,7.60
2023-03-03T14:19:10.644Z,6.20
2023-03-03T14:20:21.797Z,7.00
2023-03-03T14:21:31.481Z,7.30
2023-03-03T14:22:53.779Z,6.53
2023-03-03T14:24:05.325Z,7.40
2023-03-03T14:25:14.644Z,6.63
2023-03-03T14:26:17.641Z,7.37
2023-03-03T14:27:26.046Z,6.70
2023-03-03T14:28:37.497Z,6.33
2023-03-03T14:29:39.746Z,6.57
2023-03-03T14:30:45.461Z,6.47
2023-03-03T14:31:47.978Z,7.20
2023-03-03T14:33:05.912Z,10.53
2023-03-03T14:34:23.484Z,7.60
2023-03-03T14:35:32.671Z,7.00
2023-03-03T14:36:39.658Z,8.63
2023-03-03T14:37:46.812Z,7.40
2023-03-03T14:38:49.477Z,7.40
2023-03-03T14:40:30.966Z,6.57
2023-03-03T14:41:40.361Z,7.43
2023-03-03T14:42:51.676Z,6.70
2023-03-03T14:44:02.274Z,6.27
2023-03-03T14:45:29.350Z,6.17
2023-03-03T14:46:36.561Z,7.93
2023-03-03T14:47:45.846Z,6.93
2023-03-03T14:48:53.856Z,6.63
2023-03-03T14:50:03.152Z,7.27
2023-03-03T14:51:31.694Z,7.57
2023-03-03T14:52:35.194Z,7.67
2023-03-03T14:53:42.551Z,7.93
2023-03-03T14:55:25.030Z,7.03
2023-03-03T14:56:34.565Z,7.13
2023-03-03T14:57:46.497Z,6.77
2023-03-03T14:58:50.200Z,6.30
2023-03-03T14:59:56.708Z,7.60
2023-03-03T15:01:34.353Z,5.93
2023-03-03T15:02:42.456Z,7.33
2023-03-03T15:03:49.404Z,7.60
2023-03-03T15:05:13.693Z,8.77
2023-03-03T15:06:46.330Z,6.90
2023-03-03T15:08:09.034Z,7.27
2023-03-03T15:09:32.982Z,7.67